Time;durP1;ratioP1;P1;durP2;ratioP2;P2;SDS_P1;SDS_P2;PMS_P1;PMS_P2;Temp;Humidity;BMP_temperature;BMP_pressure;BME280_temperature;BME280_humidity;BME280_pressure;Samples;Min_cycle;Max_cycle;Signal;HPM_P1;HPM_P2
2021/12/10 00:01:06;;;;;;;47.05;26.50;;;5.10;99.90;;;;;;4983211;28;20037;-81
2021/12/10 00:03:38;;;;;;;47.50;26.05;;;5.00;99.90;;;;;;4979991;28;20048;-81
2021/12/10 00:06:10;;;;;;;49.35;25.73;;;5.00;99.90;;;;;;4996985;28;20148;-81
2021/12/10 00:08:38;;;;;;;43.38;24.05;;;5.00;99.90;;;;;;4987427;28;20030;-81
2021/12/10 00:11:09;;;;;;;44.17;26.08;;;5.10;99.90;;;;;;4999313;28;20034;-81
2021/12/10 00:13:36;;;;;;;49.85;26.13;;;5.00;99.90;;;;;;5004308;28;20085;-81
2021/12/10 00:16:03;;;;;;;44.28;25.50;;;5.00;99.90;;;;;;4985315;28;20042;-81
2021/12/10 00:18:34;;;;;;;46.78;25.92;;;5.00;99.90;;;;;;5001523;28;20042;-81
2021/12/10 00:21:03;;;;;;;43.63;24.60;;;5.00;99.90;;;;;;5000080;28;20046;-81
2021/12/10 00:23:31;;;;;;;43.03;24.95;;;5.00;99.90;;;;;;4996717;28;20034;-81
2021/12/10 00:25:57;;;;;;;47.10;24.10;;;5.00;99.90;;;;;;4998306;28;20114;-81
2021/12/10 00:28:51;;;;;;;42.67;23.10;;;5.00;99.90;;;;;;4985690;28;20144;-81
2021/12/10 00:31:30;;;;;;;43.97;23.65;;;5.00;99.90;;;;;;4981018;28;20045;-81
2021/12/10 00:34:04;;;;;;;40.88;22.60;;;5.00;99.90;;;;;;5003288;28;20136;-81
2021/12/10 00:36:36;;;;;;;44.83;22.80;;;5.10;99.90;;;;;;4984583;28;20128;-81
2021/12/10 00:39:08;;;;;;;44.53;23.88;;;5.00;99.90;;;;;;4983157;28;20087;-81
2021/12/10 00:41:36;;;;;;;38.90;23.10;;;5.10;99.90;;;;;;4984757;28;20073;-81
2021/12/10 00:44:03;;;;;;;43.60;22.13;;;5.00;99.90;;;;;;5002174;28;20362;-81
2021/12/10 00:46:29;;;;;;;40.95;23.33;;;5.00;99.90;;;;;;4986568;28;20041;-81
2021/12/10 00:48:55;;;;;;;40.55;22.17;;;5.00;99.90;;;;;;4981910;28;20038;-81
2021/12/10 00:51:21;;;;;;;40.72;22.17;;;5.10;99.90;;;;;;4999306;28;20042;-82
2021/12/10 00:53:47;;;;;;;37.00;21.30;;;5.10;99.90;;;;;;4985789;28;20513;-81
2021/12/10 00:56:13;;;;;;;37.40;22.15;;;5.00;99.90;;;;;;4982827;28;20073;-81
2021/12/10 00:58:40;;;;;;;40.70;21.55;;;5.00;99.90;;;;;;4985364;28;20092;-81
2021/12/10 01:01:18;;;;;;;39.03;21.35;;;5.00;99.90;;;;;;4984835;28;20143;-81
2021/12/10 01:03:49;;;;;;;36.85;18.75;;;5.10;99.90;;;;;;4989406;28;20637;-81
2021/12/10 01:06:17;;;;;;;33.70;20.02;;;5.10;99.90;;;;;;4984330;28;20081;-81
2021/12/10 01:08:52;;;;;;;35.33;20.38;;;5.10;99.90;;;;;;4985307;28;20069;-81
2021/12/10 01:11:31;;;;;;;37.75;20.55;;;5.10;99.90;;;;;;5000136;28;20417;-81
2021/12/10 01:14:09;;;;;;;34.72;19.90;;;5.10;99.90;;;;;;4987723;28;20077;-81
2021/12/10 01:24:54;;;;;;;38.13;20.48;;;5.10;99.90;;;;;;5001240;28;20850;-81
2021/12/10 01:27:34;;;;;;;30.13;18.80;;;5.10;99.90;;;;;;5002184;28;20402;-81
2021/12/10 01:30:09;;;;;;;39.03;19.65;;;5.10;99.90;;;;;;4985759;28;20030;-81
2021/12/10 01:32:38;;;;;;;36.28;19.60;;;5.00;99.90;;;;;;4997221;28;20097;-81
2021/12/10 01:35:06;;;;;;;35.60;19.77;;;5.10;99.90;;;;;;5001419;28;20045;-81
2021/12/10 01:37:32;;;;;;;38.40;21.17;;;5.00;99.90;;;;;;4983500;28;20041;-81
2021/12/10 01:39:58;;;;;;;32.90;19.00;;;5.10;99.90;;;;;;4997090;28;20143;-81
2021/12/10 01:44:58;;;;;;;32.40;18.70;;;5.00;99.90;;;;;;5017536;28;20136;-81
2021/12/10 01:47:33;;;;;;;32.38;18.40;;;5.00;99.90;;;;;;4984027;28;20045;-81
2021/12/10 01:50:00;;;;;;;39.50;20.02;;;5.00;99.90;;;;;;4999714;28;20038;-81
2021/12/10 01:52:27;;;;;;;30.48;18.00;;;5.00;99.90;;;;;;5000623;28;20384;-81
2021/12/10 01:54:57;;;;;;;30.95;18.73;;;5.10;99.90;;;;;;4997860;28;20525;-80
2021/12/10 01:57:30;;;;;;;37.60;19.80;;;5.00;99.90;;;;;;4991300;28;20077;-81
2021/12/10 01:59:56;;;;;;;35.35;18.52;;;5.00;99.90;;;;;;4983171;28;20102;-81
2021/12/10 02:02:26;;;;;;;34.72;19.48;;;5.00;99.90;;;;;;4999229;28;20046;-81
2021/12/10 02:04:52;;;;;;;33.92;18.90;;;5.10;99.90;;;;;;4998931;28;20061;-81
2021/12/10 02:07:22;;;;;;;34.90;18.20;;;5.00;99.90;;;;;;4982388;28;20466;-81
2021/12/10 02:09:48;;;;;;;33.63;19.75;;;5.00;99.90;;;;;;4995858;28;20041;-81
2021/12/10 02:12:18;;;;;;;36.13;18.98;;;5.00;99.90;;;;;;4996569;28;20050;-81
2021/12/10 02:14:45;;;;;;;36.28;19.42;;;5.00;99.90;;;;;;4982825;28;20065;-81
2021/12/10 02:17:11;;;;;;;29.92;16.60;;;5.00;99.90;;;;;;4995685;28;20046;-81
2021/12/10 02:19:39;;;;;;;31.65;15.95;;;5.00;99.90;;;;;;4995917;28;20041;-81
2021/12/10 02:22:06;;;;;;;29.38;15.23;;;4.90;99.90;;;;;;4998888;28;20070;-81
2021/12/10 02:24:32;;;;;;;26.48;14.68;;;4.90;99.90;;;;;;4993620;28;20041;-81
2021/12/10 02:27:03;;;;;;;23.33;14.30;;;4.90;99.90;;;;;;4997479;28;20041;-81
2021/12/10 02:29:33;;;;;;;29.67;16.30;;;4.80;99.90;;;;;;4983810;28;20460;-81
2021/12/10 02:31:59;;;;;;;26.83;15.50;;;4.90;99.90;;;;;;4992431;28;20046;-81
2021/12/10 02:34:26;;;;;;;31.75;16.98;;;4.90;99.90;;;;;;4995111;28;20327;-81
2021/12/10 02:36:53;;;;;;;32.20;15.80;;;4.80;99.90;;;;;;4981188;28;20715;-81
2021/12/10 02:39:22;;;;;;;27.75;16.42;;;4.90;99.90;;;;;;4996126;28;20501;-80
2021/12/10 02:41:52;;;;;;;29.08;15.63;;;4.90;99.90;;;;;;4998973;28;20038;-81
2021/12/10 02:44:23;;;;;;;28.48;15.65;;;4.80;99.90;;;;;;4980323;28;20038;-81
2021/12/10 02:46:50;;;;;;;27.60;16.10;;;4.80;99.90;;;;;;4997138;28;20117;-81
2021/12/10 02:49:17;;;;;;;28.00;15.82;;;4.80;99.90;;;;;;4998287;28;20102;-81
2021/12/10 02:51:44;;;;;;;28.17;16.38;;;4.80;99.90;;;;;;4999387;28;20073;-81
2021/12/10 02:54:12;;;;;;;25.48;15.30;;;4.80;99.90;;;;;;4999993;28;21102;-81
2021/12/10 02:56:39;;;;;;;29.85;16.42;;;4.80;99.90;;;;;;4981408;28;20374;-81
2021/12/10 02:59:05;;;;;;;30.27;16.05;;;4.70;99.90;;;;;;4996385;28;20065;-81
2021/12/10 03:01:42;;;;;;;24.20;15.45;;;4.70;99.90;;;;;;4982397;28;20042;-81
2021/12/10 03:04:10;;;;;;;29.23;15.65;;;4.70;99.90;;;;;;4983486;28;20103;-81
2021/12/10 03:06:49;;;;;;;28.42;15.80;;;4.70;99.90;;;;;;4979396;28;20038;-81
2021/12/10 03:09:17;;;;;;;30.10;16.00;;;4.70;99.90;;;;;;4998939;28;20046;-81
2021/12/10 03:11:48;;;;;;;27.70;15.70;;;4.70;99.90;;;;;;4997846;28;20053;-81
2021/12/10 03:14:18;;;;;;;29.15;16.42;;;4.70;99.90;;;;;;4998750;28;20042;-81
2021/12/10 03:16:48;;;;;;;24.80;14.85;;;4.60;99.90;;;;;;4983135;28;20037;-81
2021/12/10 03:19:15;;;;;;;33.78;15.70;;;4.70;99.90;;;;;;4999364;28;20046;-81
2021/12/10 03:21:44;;;;;;;30.02;17.67;;;4.70;99.90;;;;;;4999736;28;20125;-81
2021/12/10 03:24:18;;;;;;;27.98;15.95;;;4.70;99.90;;;;;;4998594;28;20045;-81
2021/12/10 03:26:43;;;;;;;28.38;16.67;;;4.60;99.90;;;;;;4992837;28;20255;-81
2021/12/10 03:29:10;;;;;;;29.45;16.70;;;4.70;99.90;;;;;;4997754;28;20028;-81
2021/12/10 03:31:36;;;;;;;31.15;15.30;;;4.60;99.90;;;;;;4983252;28;20575;-81
2021/12/10 03:34:04;;;;;;;27.02;15.77;;;4.70;99.90;;;;;;4981150;28;20515;-81
2021/12/10 03:36:32;;;;;;;32.97;16.20;;;4.70;99.90;;;;;;4997647;28;20541;-81
2021/12/10 03:38:59;;;;;;;28.30;15.55;;;4.70;99.90;;;;;;4983213;28;20080;-81
2021/12/10 03:41:25;;;;;;;28.50;15.30;;;4.70;99.90;;;;;;4980425;28;20038;-81
2021/12/10 03:43:53;;;;;;;32.03;16.77;;;4.70;99.90;;;;;;4997505;28;20042;-81
2021/12/10 03:46:20;;;;;;;28.90;16.50;;;4.70;99.90;;;;;;4987406;28;20042;-81
2021/12/10 03:48:49;;;;;;;26.48;15.98;;;4.70;99.90;;;;;;4989529;28;20069;-81
2021/12/10 03:51:19;;;;;;;29.45;15.30;;;4.60;99.90;;;;;;4987517;28;20045;-81
2021/12/10 03:53:46;;;;;;;29.30;18.10;;;4.70;99.90;;;;;;4991447;28;20076;-81
2021/12/10 03:56:17;;;;;;;31.23;17.02;;;4.60;99.90;;;;;;4995419;28;20585;-81
2021/12/10 03:58:44;;;;;;;34.58;18.60;;;4.60;99.90;;;;;;4988479;28;20060;-81
2021/12/10 04:01:12;;;;;;;27.25;17.42;;;4.70;99.90;;;;;;5004023;28;20041;-81
2021/12/10 04:03:38;;;;;;;33.47;18.88;;;4.60;99.90;;;;;;5001952;28;20046;-81
2021/12/10 04:06:04;;;;;;;32.22;19.25;;;4.60;99.90;;;;;;5004532;28;20034;-81
2021/12/10 04:08:30;;;;;;;33.13;19.73;;;4.60;99.90;;;;;;4988826;28;20030;-81
2021/12/10 04:10:57;;;;;;;34.53;19.45;;;4.60;99.90;;;;;;5005505;28;20104;-80
2021/12/10 04:13:23;;;;;;;33.53;19.67;;;4.60;99.90;;;;;;5006738;28;20080;-81
2021/12/10 04:15:49;;;;;;;26.88;19.33;;;4.50;99.90;;;;;;5003961;28;20473;-81
2021/12/10 04:18:15;;;;;;;30.15;20.92;;;4.50;99.90;;;;;;5004292;28;20073;-81
2021/12/10 04:20:42;;;;;;;33.55;21.88;;;4.50;99.90;;;;;;4988513;28;20121;-81
2021/12/10 04:23:11;;;;;;;30.77;21.48;;;4.50;99.90;;;;;;5004094;28;20276;-81
2021/12/10 04:25:38;;;;;;;31.50;20.85;;;4.50;99.90;;;;;;5004209;28;20073;-81
2021/12/10 04:28:07;;;;;;;32.20;22.38;;;4.40;99.90;;;;;;5004636;28;20037;-81
2021/12/10 04:30:39;;;;;;;36.08;22.77;;;4.40;99.90;;;;;;5002923;28;20034;-81
2021/12/10 04:33:07;;;;;;;31.23;22.85;;;4.40;99.90;;;;;;4986645;28;20128;-81
2021/12/10 04:35:34;;;;;;;30.70;20.92;;;4.40;99.90;;;;;;5001633;28;20041;-81
2021/12/10 04:38:00;;;;;;;30.48;20.75;;;4.30;99.90;;;;;;5000532;28;20042;-81
2021/12/10 04:40:26;;;;;;;27.75;20.30;;;4.20;99.90;;;;;;4999859;28;20042;-81
2021/12/10 04:42:52;;;;;;;31.67;21.08;;;4.20;99.90;;;;;;5004465;28;20033;-81
2021/12/10 04:45:21;;;;;;;34.58;21.60;;;4.10;99.90;;;;;;5003549;28;20113;-81
2021/12/10 04:47:48;;;;;;;33.13;19.67;;;4.10;99.90;;;;;;4988007;28;20046;-81
2021/12/10 04:50:16;;;;;;;29.20;19.42;;;4.00;99.90;;;;;;5002093;28;20064;-81
2021/12/10 04:52:42;;;;;;;28.88;20.48;;;3.80;99.90;;;;;;4987408;28;20061;-81
2021/12/10 04:55:11;;;;;;;30.58;20.13;;;3.80;99.90;;;;;;4986888;28;20042;-81
2021/12/10 04:57:38;;;;;;;29.67;20.25;;;3.70;99.90;;;;;;4997983;28;20308;-81
2021/12/10 05:00:08;;;;;;;33.17;19.30;;;3.60;99.90;;;;;;4984398;28;20048;-81
2021/12/10 05:02:35;;;;;;;28.48;18.15;;;3.50;99.90;;;;;;4992320;28;20046;-81
2021/12/10 05:05:01;;;;;;;27.45;18.08;;;3.50;99.90;;;;;;4998154;28;20239;-81
2021/12/10 05:07:33;;;;;;;25.63;18.63;;;3.40;99.90;;;;;;4985005;28;20038;-81
2021/12/10 05:09:59;;;;;;;32.80;20.80;;;3.40;99.90;;;;;;4995059;28;20140;-81
2021/12/10 05:12:25;;;;;;;31.50;18.13;;;3.30;99.90;;;;;;4984924;28;20156;-81
2021/12/10 05:14:57;;;;;;;34.22;18.80;;;3.30;99.90;;;;;;4998933;28;20034;-81
2021/12/10 05:17:27;;;;;;;31.27;20.20;;;3.30;99.90;;;;;;4985409;28;20191;-81
2021/12/10 05:19:52;;;;;;;27.67;18.70;;;3.20;99.90;;;;;;4999815;28;20049;-81
2021/12/10 05:22:18;;;;;;;30.60;19.20;;;3.10;99.90;;;;;;5000254;28;20121;-81
2021/12/10 05:24:44;;;;;;;28.95;19.23;;;3.10;99.90;;;;;;4985688;28;20034;-81
2021/12/10 05:27:12;;;;;;;30.75;19.40;;;3.00;99.90;;;;;;4985723;28;20041;-81
2021/12/10 05:29:39;;;;;;;28.77;18.92;;;3.00;99.90;;;;;;5000997;28;20100;-81
2021/12/10 05:32:07;;;;;;;28.55;19.20;;;3.00;99.90;;;;;;4984888;28;20214;-81
2021/12/10 05:34:32;;;;;;;28.90;18.20;;;3.00;99.90;;;;;;4998554;28;20144;-81
2021/12/10 05:37:00;;;;;;;32.47;19.60;;;3.00;99.90;;;;;;4998559;28;20466;-81
2021/12/10 05:39:26;;;;;;;31.83;18.92;;;3.00;99.90;;;;;;4983291;28;20026;-81
2021/12/10 05:41:53;;;;;;;29.83;19.17;;;2.90;99.90;;;;;;4983686;28;20359;-81
2021/12/10 05:44:19;;;;;;;35.58;20.23;;;3.00;99.90;;;;;;5000095;28;20104;-81
2021/12/10 05:46:45;;;;;;;33.63;20.10;;;3.10;99.90;;;;;;4982486;28;20253;-81
2021/12/10 05:49:11;;;;;;;32.72;20.08;;;3.10;99.90;;;;;;5000578;28;20025;-81
2021/12/10 05:51:36;;;;;;;36.00;21.95;;;3.10;99.90;;;;;;4983012;28;20038;-81
2021/12/10 05:54:03;;;;;;;33.50;20.48;;;3.20;99.90;;;;;;4985114;28;20405;-81
2021/12/10 05:56:28;;;;;;;35.15;21.52;;;3.20;99.90;;;;;;4983719;28;20038;-81
2021/12/10 05:58:58;;;;;;;38.95;21.60;;;3.20;99.90;;;;;;4998600;28;20042;-81
2021/12/10 06:01:24;;;;;;;36.50;20.98;;;3.20;99.90;;;;;;5013618;28;20480;-80
2021/12/10 06:03:53;;;;;;;32.60;21.67;;;3.20;99.90;;;;;;4994828;28;20053;-81
2021/12/10 06:06:23;;;;;;;30.35;20.55;;;3.20;99.90;;;;;;4999044;28;20042;-81
2021/12/10 06:08:49;;;;;;;31.33;20.15;;;3.10;99.90;;;;;;4999657;28;20037;-81
2021/12/10 06:11:17;;;;;;;31.45;20.35;;;3.10;99.90;;;;;;4997781;28;21679;-81
2021/12/10 06:13:46;;;;;;;30.55;19.45;;;3.00;99.90;;;;;;4984687;28;20048;-81
2021/12/10 06:16:12;;;;;;;27.80;17.77;;;3.00;99.90;;;;;;4980844;28;20065;-81
2021/12/10 06:18:46;;;;;;;29.83;19.15;;;2.90;99.90;;;;;;4985479;28;20029;-81
2021/12/10 06:21:12;;;;;;;30.95;18.85;;;2.90;99.90;;;;;;5000492;28;20072;-81
2021/12/10 06:23:39;;;;;;;28.42;18.90;;;2.90;99.90;;;;;;4999805;28;20046;-81
2021/12/10 06:26:05;;;;;;;30.75;19.17;;;2.90;99.90;;;;;;5000687;28;20568;-81
2021/12/10 06:28:32;;;;;;;29.70;18.27;;;2.90;99.90;;;;;;5002191;28;20034;-81
2021/12/10 06:30:59;;;;;;;30.65;19.45;;;2.80;99.90;;;;;;5002175;28;20044;-81
2021/12/10 06:33:28;;;;;;;27.85;17.20;;;2.90;99.90;;;;;;4971264;28;20204;-81
2021/12/10 06:35:55;;;;;;;29.30;18.27;;;2.80;99.90;;;;;;4994088;28;20034;-81
2021/12/10 06:38:23;;;;;;;28.77;17.95;;;2.90;99.90;;;;;;4998286;28;20386;-81
2021/12/10 06:40:51;;;;;;;26.80;17.67;;;2.80;99.90;;;;;;4983039;28;20029;-81
2021/12/10 06:43:17;;;;;;;24.67;17.25;;;2.80;99.90;;;;;;4983568;28;20052;-81
2021/12/10 06:45:45;;;;;;;24.75;17.25;;;2.80;99.90;;;;;;4994678;28;20052;-81
2021/12/10 06:48:12;;;;;;;26.60;16.63;;;2.80;99.90;;;;;;4983751;28;20037;-81
2021/12/10 06:50:42;;;;;;;26.88;16.52;;;2.70;99.90;;;;;;4982631;28;20025;-81
2021/12/10 06:53:08;;;;;;;26.67;16.85;;;2.70;99.90;;;;;;4998156;28;20074;-81
2021/12/10 06:55:34;;;;;;;23.00;15.32;;;2.60;99.90;;;;;;4998868;28;20283;-81
2021/12/10 06:58:00;;;;;;;26.17;16.27;;;2.70;99.90;;;;;;5000759;28;20061;-81
2021/12/10 07:00:40;;;;;;;24.73;14.93;;;2.60;99.90;;;;;;4994811;28;20494;-81
2021/12/10 07:03:06;;;;;;;22.20;15.68;;;2.50;99.90;;;;;;4996582;28;20053;-81
2021/12/10 07:05:32;;;;;;;22.67;15.07;;;2.50;99.90;;;;;;4984518;28;20034;-81
2021/12/10 07:08:01;;;;;;;24.63;14.45;;;2.40;99.90;;;;;;5000501;28;20034;-81
2021/12/10 07:10:27;;;;;;;22.20;14.20;;;2.50;99.90;;;;;;5014065;28;20038;-81
2021/12/10 07:12:52;;;;;;;22.85;14.25;;;2.40;99.90;;;;;;4983978;28;20045;-81
2021/12/10 07:15:18;;;;;;;24.55;14.80;;;2.40;99.90;;;;;;4998618;28;20447;-81
2021/12/10 07:17:48;;;;;;;19.95;13.43;;;2.30;99.90;;;;;;4998670;28;20045;-81
2021/12/10 07:20:16;;;;;;;25.73;14.20;;;2.30;99.90;;;;;;4983117;28;20052;-81
2021/12/10 07:22:41;;;;;;;20.63;13.98;;;2.20;99.90;;;;;;4998592;28;20084;-81
2021/12/10 07:25:08;;;;;;;25.08;14.55;;;2.20;99.90;;;;;;4983536;28;20474;-81
2021/12/10 07:27:34;;;;;;;24.67;14.38;;;2.10;99.90;;;;;;4993985;28;20168;-81
2021/12/10 07:30:00;;;;;;;23.40;13.98;;;2.10;99.90;;;;;;4986358;28;20042;-81
2021/12/10 07:32:26;;;;;;;23.15;13.90;;;2.00;99.90;;;;;;4991732;28;20046;-81
2021/12/10 07:34:52;;;;;;;21.88;13.57;;;2.10;99.90;;;;;;4984177;28;20148;-81
2021/12/10 07:37:18;;;;;;;24.52;14.27;;;2.00;99.90;;;;;;4977671;28;20061;-81
2021/12/10 07:39:44;;;;;;;21.60;13.68;;;1.90;99.90;;;;;;5001058;28;20060;-81
2021/12/10 07:42:10;;;;;;;19.30;12.98;;;2.00;99.90;;;;;;4999447;28;20885;-81
2021/12/10 07:44:38;;;;;;;22.40;12.90;;;1.90;99.90;;;;;;4996796;28;20042;-81
2021/12/10 07:47:08;;;;;;;21.90;13.95;;;1.90;99.90;;;;;;4982727;28;20351;-81
2021/12/10 07:49:38;;;;;;;19.02;12.25;;;1.90;99.90;;;;;;4999042;28;20422;-81
2021/12/10 07:52:14;;;;;;;21.42;13.00;;;1.90;99.90;;;;;;4998569;28;20424;-81
2021/12/10 07:54:40;;;;;;;22.15;12.35;;;1.90;99.90;;;;;;4991273;28;20137;-81
2021/12/10 07:57:06;;;;;;;20.90;12.48;;;1.90;99.90;;;;;;4998894;28;20780;-81
2021/12/10 07:59:31;;;;;;;23.00;13.00;;;1.90;99.90;;;;;;4978116;28;20524;-81
2021/12/10 08:01:57;;;;;;;21.33;12.23;;;1.80;99.90;;;;;;4985130;28;20160;-81
2021/12/10 08:04:23;;;;;;;20.92;12.20;;;1.90;99.90;;;;;;4999348;28;20050;-81
2021/12/10 08:06:48;;;;;;;19.08;12.57;;;1.80;99.90;;;;;;4981091;28;20358;-81
2021/12/10 08:09:14;;;;;;;23.00;13.15;;;1.90;99.90;;;;;;4975238;28;20046;-81
2021/12/10 08:11:43;;;;;;;26.55;13.13;;;1.80;99.90;;;;;;4981560;28;20115;-81
2021/12/10 08:14:08;;;;;;;18.40;12.55;;;1.90;99.90;;;;;;4982887;28;20401;-81
2021/12/10 08:16:36;;;;;;;20.50;13.48;;;1.90;99.90;;;;;;4994293;28;20053;-81
2021/12/10 08:19:05;;;;;;;20.63;12.43;;;1.90;99.90;;;;;;4982047;28;20036;-81
2021/12/10 08:21:31;;;;;;;19.90;12.63;;;1.90;99.90;;;;;;4982508;28;20038;-81
2021/12/10 08:24:00;;;;;;;26.55;12.88;;;1.90;99.90;;;;;;4981544;28;20042;-81
2021/12/10 08:26:26;;;;;;;21.13;12.40;;;2.00;99.90;;;;;;4978779;28;20096;-81
2021/12/10 08:28:52;;;;;;;22.13;13.05;;;2.10;99.90;;;;;;4985844;28;20033;-81
2021/12/10 08:31:19;;;;;;;20.02;12.68;;;2.10;99.90;;;;;;4998307;28;20038;-81
2021/12/10 08:33:48;;;;;;;23.60;12.98;;;2.00;99.90;;;;;;5002757;28;20563;-81
2021/12/10 08:36:19;;;;;;;18.08;11.65;;;2.00;99.90;;;;;;5000281;28;20076;-81
2021/12/10 08:38:46;;;;;;;24.20;12.88;;;2.10;99.90;;;;;;5001513;28;20443;-81
2021/12/10 08:41:34;;;;;;;17.83;10.98;;;2.20;99.90;;;;;;4998581;28;20038;-81
2021/12/10 08:44:01;;;;;;;20.95;11.63;;;2.20;99.90;;;;;;4983895;28;20041;-81
2021/12/10 08:46:29;;;;;;;15.27;10.40;;;2.30;99.90;;;;;;4984780;28;20042;-81
2021/12/10 08:48:58;;;;;;;21.08;12.13;;;2.30;99.90;;;;;;4999880;28;20080;-81
2021/12/10 08:51:47;;;;;;;18.23;11.20;;;2.40;99.90;;;;;;4999509;28;20045;-81
2021/12/10 08:54:17;;;;;;;17.10;11.60;;;2.30;99.90;;;;;;4996175;28;20065;-80
2021/12/10 08:56:46;;;;;;;18.40;11.40;;;2.40;99.90;;;;;;4985211;28;20073;-81
2021/12/10 08:59:14;;;;;;;19.88;11.02;;;2.40;99.90;;;;;;4986602;28;20600;-81
2021/12/10 09:01:43;;;;;;;19.25;11.55;;;2.50;99.90;;;;;;5003006;28;20053;-81
2021/12/10 09:04:12;;;;;;;16.02;10.32;;;2.60;99.90;;;;;;4986544;28;20042;-81
2021/12/10 09:06:41;;;;;;;17.33;11.13;;;2.60;99.90;;;;;;4991544;28;20392;-81
2021/12/10 09:09:10;;;;;;;19.95;10.98;;;2.60;99.90;;;;;;5004057;28;20045;-80
2021/12/10 09:11:38;;;;;;;18.42;10.93;;;2.60;99.90;;;;;;4985470;28;20224;-81
2021/12/10 09:14:07;;;;;;;16.00;9.63;;;2.80;99.90;;;;;;4986868;28;20042;-81
2021/12/10 09:16:35;;;;;;;17.63;10.18;;;2.80;99.90;;;;;;4987057;28;20169;-81
2021/12/10 09:19:04;;;;;;;18.42;10.98;;;2.80;99.90;;;;;;5002751;28;20053;-81
2021/12/10 09:21:32;;;;;;;18.13;10.05;;;2.90;99.90;;;;;;5002669;28;20046;-81
2021/12/10 09:24:04;;;;;;;18.60;10.27;;;2.90;99.90;;;;;;4997744;28;20095;-81
2021/12/10 09:26:42;;;;;;;14.30;9.70;;;2.90;99.90;;;;;;4985926;28;20038;-81
2021/12/10 09:29:10;;;;;;;19.85;10.25;;;3.00;99.90;;;;;;5018321;28;20115;-81
2021/12/10 09:31:38;;;;;;;14.27;9.40;;;3.10;99.90;;;;;;5000139;28;20081;-81
2021/12/10 09:34:05;;;;;;;14.75;8.85;;;3.10;99.90;;;;;;5000429;28;20049;-81
2021/12/10 09:36:31;;;;;;;13.93;9.55;;;3.20;99.90;;;;;;4985760;28;20460;-81
2021/12/10 09:38:57;;;;;;;16.25;9.43;;;3.20;99.90;;;;;;5002698;28;20037;-81
2021/12/10 09:41:24;;;;;;;15.32;8.75;;;3.30;99.90;;;;;;4984929;28;20046;-81
2021/12/10 09:43:51;;;;;;;14.38;9.15;;;3.30;99.90;;;;;;4980083;28;20062;-81
2021/12/10 09:46:17;;;;;;;14.13;8.75;;;3.30;99.90;;;;;;4983765;28;20045;-81
2021/12/10 09:48:44;;;;;;;15.20;9.25;;;3.40;99.90;;;;;;5000534;28;20037;-81
2021/12/10 09:51:21;;;;;;;14.50;9.13;;;3.40;99.90;;;;;;4982228;28;20034;-81
2021/12/10 09:53:51;;;;;;;14.25;8.40;;;3.50;99.90;;;;;;5017082;28;20093;-81
2021/12/10 09:56:18;;;;;;;13.65;9.02;;;3.50;99.90;;;;;;4999229;28;20040;-81
2021/12/10 09:58:44;;;;;;;12.25;8.50;;;3.60;99.90;;;;;;4985614;28;20123;-81
2021/12/10 10:01:15;;;;;;;15.10;9.02;;;3.60;99.90;;;;;;4999405;28;20508;-81
2021/12/10 10:03:43;;;;;;;13.15;8.27;;;3.60;99.90;;;;;;5009435;28;20061;-81
2021/12/10 10:06:19;;;;;;;14.30;8.50;;;3.70;99.90;;;;;;5001979;28;20036;-81
2021/12/10 10:08:48;;;;;;;14.90;7.80;;;3.70;99.90;;;;;;4986117;28;20025;-81
2021/12/10 10:11:20;;;;;;;12.32;8.32;;;3.70;99.90;;;;;;4998735;28;20061;-81
2021/12/10 10:13:52;;;;;;;11.18;8.40;;;3.80;99.90;;;;;;4984548;28;20292;-81
2021/12/10 10:16:20;;;;;;;11.48;8.20;;;3.80;99.90;;;;;;4982122;28;20123;-82
2021/12/10 10:18:48;;;;;;;14.95;8.00;;;3.90;99.90;;;;;;5000280;28;20100;-82
2021/12/10 10:21:25;;;;;;;11.43;7.07;;;4.00;99.90;;;;;;4983091;28;20049;-82
2021/12/10 10:23:51;;;;;;;11.10;7.45;;;4.10;99.90;;;;;;4998608;28;20046;-82
2021/12/10 10:26:25;;;;;;;10.77;6.80;;;4.10;99.90;;;;;;4977806;28;20041;-83
2021/12/10 10:28:52;;;;;;;13.75;7.38;;;4.10;99.90;;;;;;5000843;28;20485;-82
2021/12/10 10:31:23;;;;;;;11.63;6.93;;;4.10;99.90;;;;;;4983781;28;20404;-82
2021/12/10 10:33:53;;;;;;;11.80;7.05;;;4.20;99.90;;;;;;5016436;28;20041;-82
2021/12/10 10:36:23;;;;;;;11.90;6.97;;;4.20;99.90;;;;;;4982932;28;20098;-82
2021/12/10 10:38:53;;;;;;;10.75;6.75;;;4.20;99.90;;;;;;5000471;28;20481;-82
2021/12/10 10:41:21;;;;;;;9.50;7.45;;;4.30;99.90;;;;;;4997521;28;20139;-82
2021/12/10 10:43:47;;;;;;;10.25;6.85;;;4.30;99.90;;;;;;4983336;28;20371;-82
2021/12/10 10:46:14;;;;;;;11.48;7.20;;;4.40;99.90;;;;;;5001199;28;20045;-82
2021/12/10 10:48:43;;;;;;;12.27;7.15;;;4.40;99.90;;;;;;4983686;28;20048;-82
2021/12/10 10:51:13;;;;;;;10.20;6.68;;;4.40;99.90;;;;;;4999124;28;20114;-82
2021/12/10 10:53:44;;;;;;;11.52;6.43;;;4.50;99.90;;;;;;5001071;28;20526;-82
2021/12/10 10:56:36;;;;;;;11.93;6.68;;;4.40;99.90;;;;;;4994765;28;20117;-83
2021/12/10 10:59:17;;;;;;;9.45;6.32;;;4.50;99.90;;;;;;4996544;28;20053;-83
2021/12/10 11:01:56;;;;;;;7.97;6.25;;;4.50;99.90;;;;;;4996739;28;20041;-82
2021/12/10 11:04:28;;;;;;;10.45;5.95;;;4.60;99.90;;;;;;4981003;28;20054;-82
2021/12/10 11:07:04;;;;;;;11.88;6.60;;;4.60;99.90;;;;;;4998713;28;20466;-82
2021/12/10 11:09:33;;;;;;;11.35;6.45;;;4.60;99.90;;;;;;4983581;28;20038;-82
2021/12/10 11:12:07;;;;;;;8.00;5.97;;;4.60;99.90;;;;;;4993369;28;20036;-82
2021/12/10 11:14:45;;;;;;;8.35;5.97;;;4.70;99.90;;;;;;4985844;28;20460;-82
2021/12/10 11:17:34;;;;;;;8.95;5.10;;;4.70;99.90;;;;;;4996500;28;20074;-82
2021/12/10 11:20:12;;;;;;;7.63;5.78;;;4.70;99.90;;;;;;4999797;28;20124;-82
2021/12/10 11:22:50;;;;;;;8.73;5.50;;;4.70;99.90;;;;;;4988895;28;20531;-82
2021/12/10 11:25:23;;;;;;;9.13;5.72;;;4.80;99.90;;;;;;4997709;28;20041;-82
2021/12/10 11:27:49;;;;;;;8.88;5.60;;;4.80;99.90;;;;;;4984375;28;20077;-82
2021/12/10 11:30:22;;;;;;;10.55;5.50;;;4.80;99.90;;;;;;4983905;28;20263;-82
2021/12/10 11:33:19;;;;;;;7.95;5.13;;;4.80;99.90;;;;;;5016164;28;20049;-83
2021/12/10 11:36:01;;;;;;;9.48;4.95;;;4.80;99.90;;;;;;4981213;28;20049;-82
2021/12/10 11:38:31;;;;;;;7.50;5.03;;;4.80;99.90;;;;;;5000359;28;20038;-82
2021/12/10 11:41:08;;;;;;;7.95;5.10;;;4.70;99.90;;;;;;4992638;28;20050;-82
2021/12/10 11:46:51;;;;;;;;;;;;;;;;;;;;;
2021/12/10 11:49:21;;;;;;;9.50;5.13;;;4.80;99.90;;;;;;4998845;28;20410;-83
2021/12/10 11:52:06;;;;;;;7.90;4.82;;;4.80;99.90;;;;;;5015242;28;20057;-82
2021/12/10 11:54:37;;;;;;;7.13;4.75;;;4.80;99.90;;;;;;5000354;28;20046;-82
2021/12/10 11:57:15;;;;;;;7.78;4.95;;;4.80;99.90;;;;;;5013256;28;20050;-83
2021/12/10 12:00:06;;;;;;;8.00;5.07;;;4.90;99.90;;;;;;5001124;28;20030;-82
2021/12/10 12:02:35;;;;;;;7.47;4.20;;;4.90;99.90;;;;;;4990215;28;20091;-82
2021/12/10 12:05:10;;;;;;;6.43;4.40;;;4.90;99.90;;;;;;4979287;28;20052;-83
2021/12/10 12:07:39;;;;;;;7.97;4.70;;;4.90;99.90;;;;;;4985022;28;20033;-83
2021/12/10 12:10:22;;;;;;;6.38;4.68;;;4.90;99.90;;;;;;4993989;28;20125;-82
2021/12/10 12:12:53;;;;;;;7.53;4.78;;;4.90;99.90;;;;;;4984498;28;20037;-83
2021/12/10 12:15:35;;;;;;;10.13;4.68;;;5.00;99.90;;;;;;5020023;28;20368;-82
2021/12/10 12:18:08;;;;;;;7.53;4.47;;;4.90;99.90;;;;;;4984375;28;20139;-83
2021/12/10 12:20:41;;;;;;;7.95;4.57;;;5.00;99.90;;;;;;4999348;28;20173;-83
2021/12/10 12:26:23;;;;;;;7.65;4.85;;;5.00;99.90;;;;;;5002162;28;20034;-82
2021/12/10 12:28:56;;;;;;;8.77;5.07;;;5.10;99.90;;;;;;4993022;28;20046;-83
2021/12/10 12:31:31;;;;;;;8.75;4.78;;;5.00;99.90;;;;;;5000957;28;20038;-82
2021/12/10 12:34:06;;;;;;;7.45;4.82;;;5.10;99.90;;;;;;5001652;28;20087;-83
2021/12/10 12:36:36;;;;;;;9.57;5.22;;;5.10;99.90;;;;;;5003734;28;20450;-83
2021/12/10 12:39:24;;;;;;;8.90;4.85;;;5.10;99.90;;;;;;5001649;28;20128;-82
2021/12/10 12:41:53;;;;;;;7.85;4.80;;;5.10;99.90;;;;;;5005404;28;20045;-83
2021/12/10 12:44:24;;;;;;;7.40;5.15;;;5.10;99.90;;;;;;4989588;28;20089;-83
2021/12/10 12:47:01;;;;;;;8.25;4.60;;;5.10;99.90;;;;;;5004505;28;20042;-83
2021/12/10 12:49:52;;;;;;;8.02;4.88;;;5.10;99.90;;;;;;5004081;28;20137;-83
2021/12/10 12:52:23;;;;;;;10.02;4.93;;;5.10;99.90;;;;;;5001041;28;20046;-82
2021/12/10 12:55:16;;;;;;;8.70;5.53;;;5.20;99.90;;;;;;5019097;28;20046;-83
2021/12/10 12:58:03;;;;;;;8.65;5.40;;;5.20;99.90;;;;;;5019173;28;20057;-82
2021/12/10 13:00:44;;;;;;;11.13;5.72;;;5.20;99.90;;;;;;4986798;28;20116;-83
2021/12/10 13:03:16;;;;;;;10.82;5.38;;;5.10;99.90;;;;;;4985567;28;20042;-83
2021/12/10 13:05:46;;;;;;;10.98;5.78;;;5.00;99.90;;;;;;5002360;28;20046;-82
2021/12/10 13:08:15;;;;;;;9.60;5.20;;;5.10;99.90;;;;;;5017450;28;20109;-82
2021/12/10 13:10:50;;;;;;;8.60;4.60;;;5.10;99.90;;;;;;4995358;28;20388;-82
2021/12/10 13:13:24;;;;;;;8.05;4.20;;;5.00;99.90;;;;;;5003846;28;20045;-82